createdAt,value
2022-09-10T03:03:03.262Z,93.26
2022-09-10T03:05:30.047Z,93.27
2022-09-10T03:07:57.251Z,93.45
2022-09-10T03:10:24.519Z,93.58
2022-09-10T03:12:51.340Z,93.44
2022-09-10T03:15:20.985Z,93.60
2022-09-10T03:17:47.659Z,93.77
2022-09-10T03:20:14.592Z,93.81
2022-09-10T03:22:41.347Z,93.74
2022-09-10T03:25:08.112Z,93.75
2022-09-10T03:27:35.145Z,93.58
2022-09-10T03:30:03.177Z,93.82
2022-09-10T03:32:32.127Z,94.03
2022-09-10T03:35:00.019Z,93.77
2022-09-10T03:37:26.844Z,93.89
2022-09-10T03:39:53.539Z,93.80
2022-09-10T03:42:20.314Z,93.82
2022-09-10T03:44:47.548Z,93.77
2022-09-10T03:47:14.293Z,93.96
2022-09-10T03:49:40.976Z,93.78
2022-09-10T03:52:07.883Z,93.79
2022-09-10T03:54:34.522Z,93.97
2022-09-10T03:57:03.132Z,93.79
2022-09-10T03:59:29.986Z,93.84
2022-09-10T04:01:57.290Z,93.87
2022-09-10T04:04:24.029Z,93.80
2022-09-10T04:06:53.154Z,93.91
2022-09-10T04:09:20.232Z,93.72
2022-09-10T04:11:47.988Z,93.78
2022-09-10T04:14:15.726Z,93.95
2022-09-10T04:16:42.425Z,93.78
2022-09-10T04:19:09.759Z,94.00
2022-09-10T04:21:36.496Z,93.78
2022-09-10T04:24:06.429Z,93.76
2022-09-10T04:26:33.054Z,94.07
2022-09-10T04:28:59.774Z,94.01
2022-09-10T04:31:27.478Z,93.65
2022-09-10T04:33:54.147Z,93.55
2022-09-10T04:36:23.602Z,93.55
2022-09-10T04:38:50.190Z,93.39
2022-09-10T04:41:18.229Z,93.58
2022-09-10T04:43:45.232Z,93.36
2022-09-10T04:46:12.105Z,93.17
2022-09-10T04:48:39.743Z,93.16
2022-09-10T04:51:16.007Z,93.32
2022-09-10T04:53:43.303Z,93.33
2022-09-10T04:56:10.499Z,93.51
2022-09-10T04:58:39.054Z,93.69
2022-09-10T05:01:06.747Z,93.65
2022-09-10T05:03:34.164Z,93.79
2022-09-10T05:06:03.712Z,93.93
2022-09-10T05:08:30.993Z,94.01
2022-09-10T05:11:00.491Z,94.01
2022-09-10T05:13:27.537Z,94.41
2022-09-10T05:15:59.056Z,94.20
2022-09-10T05:18:28.472Z,94.20
2022-09-10T05:20:55.180Z,94.27
2022-09-10T05:23:21.965Z,93.97
2022-09-10T05:25:48.848Z,93.89
2022-09-10T05:28:16.489Z,93.69
2022-09-10T05:30:49.508Z,93.49
2022-09-10T05:33:18.126Z,93.38
2022-09-10T05:35:44.692Z,93.52
2022-09-10T05:38:14.122Z,93.78
2022-09-10T05:40:42.943Z,93.96
2022-09-10T05:43:11.780Z,94.08
2022-09-10T05:45:38.716Z,94.02
2022-09-10T05:48:05.519Z,93.91
2022-09-10T05:50:32.171Z,94.03
2022-09-10T05:52:58.775Z,94.11
2022-09-10T05:55:25.397Z,94.22
2022-09-10T05:57:52.340Z,94.36
2022-09-10T06:00:21.533Z,94.12
2022-09-10T06:02:48.342Z,94.34
2022-09-10T06:05:15.303Z,94.48
2022-09-10T06:07:41.892Z,94.42
2022-09-10T06:10:08.971Z,94.48
2022-09-10T06:12:38.752Z,94.25
2022-09-10T06:15:07.224Z,94.36
2022-09-10T06:17:34.863Z,94.19
2022-09-10T06:20:01.517Z,94.30
2022-09-10T06:22:28.137Z,94.19
2022-09-10T06:24:55.546Z,94.41
2022-09-10T06:27:23.332Z,94.23
2022-09-10T06:29:49.961Z,94.35
2022-09-10T06:32:16.586Z,94.63
2022-09-10T06:34:43.263Z,94.79
2022-09-10T06:37:10.121Z,94.58
2022-09-10T06:39:36.847Z,94.49
2022-09-10T06:42:03.541Z,94.58
2022-09-10T06:44:30.141Z,94.66
2022-09-10T06:47:39.081Z,94.83
2022-09-10T06:49:43.378Z,94.87
2022-09-10T06:52:11.564Z,94.93
2022-09-10T06:54:38.136Z,94.97
2022-09-10T06:57:05.175Z,95.04
2022-09-10T06:59:31.747Z,95.10
2022-09-10T07:02:02.980Z,95.02
2022-09-10T07:04:33.692Z,95.14
2022-09-10T07:07:30.556Z,95.07
2022-09-10T07:21:58.414Z,95.34
2022-09-10T07:39:24.986Z,95.45
2022-09-10T07:42:09.166Z,95.58
2022-09-10T07:44:54.781Z,95.87
2022-09-10T07:47:38.470Z,95.73
2022-09-10T08:19:24.944Z,96.03
2022-09-10T08:23:13.360Z,96.39
2022-09-10T08:26:24.895Z,96.85
2022-09-10T08:29:09.063Z,97.63
2022-09-10T08:31:54.646Z,97.77
2022-09-10T08:34:30.155Z,98.63
2022-09-10T08:37:50.947Z,100.00
2022-09-10T08:40:37.298Z,100.00
2022-09-10T08:43:47.616Z,100.00
2022-09-10T08:46:56.643Z,100.00
2022-09-10T08:49:51.744Z,100.00
2022-09-10T08:52:59.583Z,100.00
2022-09-10T08:55:36.275Z,100.00
2022-09-10T08:58:23.535Z,100.00
2022-09-10T09:01:22.177Z,99.66
2022-09-10T09:04:21.172Z,97.39
2022-09-10T09:07:19.394Z,93.23
2022-09-10T09:09:59.388Z,88.96
2022-09-10T09:12:58.157Z,83.93
2022-09-10T09:16:13.422Z,84.03
2022-09-10T09:22:38.075Z,82.21
2022-09-10T09:26:25.550Z,81.74
2022-09-10T09:29:23.715Z,81.36
2022-09-10T09:32:25.409Z,80.78
2022-09-10T09:35:07.564Z,80.72
2022-09-10T09:38:03.273Z,80.93
2022-09-10T09:40:54.051Z,80.63
2022-09-10T09:43:37.440Z,81.05
2022-09-10T09:49:30.834Z,79.10
2022-09-10T09:52:54.479Z,79.32
2022-09-10T09:59:44.948Z,78.33
2022-09-10T10:06:07.878Z,78.52
2022-09-10T10:09:13.400Z,76.75
2022-09-10T10:16:20.025Z,74.01
2022-09-10T10:26:59.744Z,72.35
2022-09-10T10:30:12.312Z,71.87
2022-09-10T10:37:30.667Z,66.80
2022-09-10T10:41:01.066Z,67.87
2022-09-10T10:52:09.994Z,65.23
2022-09-10T10:55:49.452Z,63.81
2022-09-10T10:59:48.998Z,64.27
2022-09-10T11:06:18.716Z,65.20
2022-09-10T11:16:40.567Z,65.80
2022-09-10T11:31:22.623Z,67.56
2022-09-10T11:35:12.739Z,68.24
2022-09-10T11:38:56.475Z,68.20
2022-09-10T11:45:09.250Z,68.06
2022-09-10T11:49:01.853Z,68.07
2022-09-10T11:52:34.028Z,68.10
2022-09-10T11:59:04.424Z,69.00
2022-09-10T12:02:11.831Z,68.57
2022-09-10T12:05:40.658Z,68.16
2022-09-10T12:08:41.417Z,68.24
2022-09-10T12:15:42.856Z,67.20
2022-09-10T12:23:19.149Z,67.05
2022-09-10T12:30:20.404Z,66.59
2022-09-10T12:59:16.612Z,63.09
2022-09-10T13:14:03.044Z,63.65
2022-09-10T13:27:03.137Z,63.08
2022-09-10T13:29:43.989Z,63.35
2022-09-10T13:32:20.724Z,63.36
2022-09-10T13:35:05.110Z,63.10
2022-09-10T13:38:04.262Z,62.29
2022-09-10T13:40:53.573Z,62.21
2022-09-10T13:43:39.875Z,62.07
2022-09-10T13:46:12.530Z,61.76
2022-09-10T13:48:46.494Z,61.09
2022-09-10T13:51:31.199Z,61.33
2022-09-10T13:54:07.495Z,61.32
2022-09-10T13:56:35.233Z,60.90
2022-09-10T13:59:04.087Z,60.37
2022-09-10T14:01:53.980Z,59.54
2022-09-10T14:04:26.978Z,59.94
2022-09-10T14:07:07.869Z,60.61
2022-09-10T14:09:34.991Z,60.14
2022-09-10T14:12:08.835Z,59.75
2022-09-10T14:14:41.340Z,59.35
2022-09-10T14:17:15.918Z,59.81
2022-09-10T14:19:49.396Z,60.11
2022-09-10T14:22:26.474Z,59.38
2022-09-10T14:25:01.882Z,59.53
2022-09-10T14:27:31.378Z,58.85
2022-09-10T14:30:18.446Z,59.43
2022-09-10T14:32:46.290Z,59.58
2022-09-10T14:35:39.469Z,58.25
2022-09-10T14:38:29.184Z,58.33
2022-09-10T14:41:05.454Z,58.82
2022-09-10T14:43:38.119Z,58.18
2022-09-10T14:46:10.192Z,58.73
2022-09-10T14:49:02.555Z,58.21
2022-09-10T14:51:29.454Z,58.68
2022-09-10T14:53:58.315Z,57.58
2022-09-10T14:56:42.398Z,57.74
2022-09-10T14:59:24.141Z,57.33
2022-09-10T15:01:51.565Z,57.26
2022-09-10T15:04:23.659Z,58.18
2022-09-10T15:06:54.788Z,58.33
2022-09-10T15:09:21.935Z,57.56
2022-09-10T15:11:48.999Z,57.09
2022-09-10T15:14:16.863Z,57.89
2022-09-10T15:16:44.160Z,57.77
2022-09-10T15:19:11.766Z,56.85
2022-09-10T15:21:40.605Z,56.95
2022-09-10T15:24:12.597Z,57.15
2022-09-10T15:26:39.237Z,57.15
2022-09-10T15:29:06.059Z,57.53
2022-09-10T15:31:33.016Z,57.60
2022-09-10T15:33:59.976Z,57.56
2022-09-10T15:36:28.369Z,57.58
2022-09-10T15:38:55.903Z,57.20
2022-09-10T15:41:22.542Z,57.62
2022-09-10T15:43:49.144Z,57.04
2022-09-10T15:46:17.243Z,57.06
2022-09-10T15:48:45.169Z,57.04
2022-09-10T15:51:21.356Z,56.47
2022-09-10T15:53:49.336Z,56.86
2022-09-10T15:56:17.362Z,56.77
2022-09-10T15:58:55.217Z,57.11
2022-09-10T16:01:23.222Z,56.86
2022-09-10T16:03:56.416Z,57.11
2022-09-10T16:06:25.185Z,56.73
2022-09-10T16:08:56.679Z,56.39
2022-09-10T16:11:24.961Z,56.54
2022-09-10T16:13:52.411Z,57.54
2022-09-10T16:16:21.800Z,57.18
2022-09-10T16:18:51.400Z,57.70
2022-09-10T16:21:24.267Z,56.85
2022-09-10T16:23:52.779Z,56.39
2022-09-10T16:26:23.141Z,57.02
2022-09-10T16:28:58.536Z,57.04
2022-09-10T16:31:30.376Z,56.32
2022-09-10T16:33:59.522Z,56.21
2022-09-10T16:36:27.100Z,56.43
2022-09-10T16:38:56.115Z,56.45
2022-09-10T16:41:24.384Z,56.65
2022-09-10T16:43:51.769Z,57.39
2022-09-10T16:46:18.813Z,56.75
2022-09-10T16:48:46.670Z,56.64
2022-09-10T16:51:18.101Z,56.57
2022-09-10T16:53:46.928Z,56.78
2022-09-10T16:56:15.813Z,57.63
2022-09-10T16:58:46.988Z,56.87
2022-09-10T17:01:15.029Z,56.74
2022-09-10T17:03:44.175Z,56.83
2022-09-10T17:06:16.406Z,57.18
2022-09-10T17:08:45.254Z,57.09
2022-09-10T17:11:16.313Z,57.25
2022-09-10T17:13:43.455Z,57.10
2022-09-10T17:16:16.943Z,57.22
2022-09-10T17:18:44.959Z,57.63
2022-09-10T17:21:11.728Z,58.00
2022-09-10T17:23:38.413Z,57.53
2022-09-10T17:26:06.869Z,58.49
2022-09-10T17:28:33.615Z,58.17
2022-09-10T17:31:00.698Z,58.93
2022-09-10T17:33:28.216Z,58.61
2022-09-10T17:36:00.466Z,58.90
2022-09-10T17:38:29.517Z,58.91
2022-09-10T17:41:01.805Z,58.97
2022-09-10T17:43:31.622Z,58.96
2022-09-10T17:45:58.420Z,60.07
2022-09-10T17:48:28.119Z,60.75
2022-09-10T17:50:55.019Z,61.01
2022-09-10T17:53:21.692Z,61.45
2022-09-10T17:55:48.343Z,62.00
2022-09-10T17:58:16.144Z,61.71
2022-09-10T18:00:48.987Z,62.09
2022-09-10T18:03:17.739Z,62.42
2022-09-10T18:05:45.904Z,63.20
2022-09-10T18:08:13.302Z,63.81
2022-09-10T18:10:40.310Z,63.52
2022-09-10T18:13:08.562Z,64.20
2022-09-10T18:15:42.220Z,64.16
2022-09-10T18:18:10.013Z,64.48
2022-09-10T18:20:36.645Z,64.91
2022-09-10T18:23:03.472Z,65.51
2022-09-10T18:25:31.505Z,65.82
2022-09-10T18:28:01.465Z,66.50
2022-09-10T18:30:29.186Z,66.04
2022-09-10T18:32:55.793Z,66.64
2022-09-10T18:35:26.183Z,66.88
2022-09-10T18:37:52.823Z,67.31
2022-09-10T18:40:19.863Z,67.35
2022-09-10T18:42:47.856Z,67.83
2022-09-10T18:45:14.867Z,68.42
2022-09-10T18:47:44.868Z,68.59
2022-09-10T18:50:13.312Z,68.91
2022-09-10T18:52:40.257Z,68.98
2022-09-10T18:55:07.443Z,69.29
2022-09-10T18:57:34.081Z,69.67
2022-09-10T19:00:01.163Z,69.91
2022-09-10T19:02:27.921Z,70.08
2022-09-10T19:05:10.677Z,70.17
2022-09-10T19:07:38.468Z,70.50
2022-09-10T19:10:07.145Z,70.93
2022-09-10T19:12:33.951Z,70.98
2022-09-10T19:15:00.543Z,71.50
2022-09-10T19:17:27.155Z,71.48
2022-09-10T19:19:53.762Z,71.47
2022-09-10T19:22:20.445Z,71.65
2022-09-10T19:24:55.752Z,72.15
2022-09-10T19:27:23.516Z,72.19
2022-09-10T19:29:50.554Z,72.51
2022-09-10T19:32:19.711Z,72.67
2022-09-10T19:34:48.873Z,72.76
2022-09-10T19:37:15.483Z,72.77
2022-09-10T19:39:42.944Z,72.75
2022-09-10T19:42:09.932Z,72.73
2022-09-10T19:44:39.449Z,72.84
2022-09-10T19:47:06.071Z,73.17
2022-09-10T19:49:34.340Z,73.63
2022-09-10T19:52:01.440Z,73.78
2022-09-10T19:54:30.370Z,74.33
2022-09-10T19:56:56.977Z,74.40
2022-09-10T19:59:23.649Z,74.71
2022-09-10T20:01:50.322Z,74.99
2022-09-10T20:04:17.071Z,74.92
2022-09-10T20:06:45.963Z,75.10
2022-09-10T20:09:13.075Z,75.18
2022-09-10T20:11:39.786Z,75.33
2022-09-10T20:14:10.124Z,75.40
2022-09-10T20:16:42.884Z,75.57
2022-09-10T20:19:11.320Z,75.62
2022-09-10T20:21:38.633Z,75.55
2022-09-10T20:24:07.996Z,75.83
2022-09-10T20:26:41.261Z,75.81
2022-09-10T20:29:13.253Z,76.00
2022-09-10T20:31:41.213Z,76.09
2022-09-10T20:34:12.282Z,76.09
2022-09-10T20:36:41.308Z,76.38
2022-09-10T20:39:08.517Z,76.60
2022-09-10T20:41:35.263Z,76.93
2022-09-10T20:44:02.987Z,77.06
2022-09-10T20:46:31.090Z,77.41
2022-09-10T20:49:04.452Z,77.42
2022-09-10T20:51:35.913Z,77.61
2022-09-10T20:54:05.888Z,77.74
2022-09-10T20:56:33.726Z,77.67
2022-09-10T20:59:02.046Z,77.80
2022-09-10T21:01:33.159Z,77.94
2022-09-10T21:04:01.554Z,78.53
2022-09-10T21:06:31.210Z,78.27
2022-09-10T21:08:59.616Z,78.15
2022-09-10T21:11:31.058Z,78.36
2022-09-10T21:14:02.356Z,78.39
2022-09-10T21:16:31.582Z,78.50
2022-09-10T21:19:04.544Z,79.00
2022-09-10T21:21:34.240Z,79.14
2022-09-10T21:24:04.025Z,79.40
2022-09-10T21:26:34.295Z,79.44
2022-09-10T21:29:04.339Z,79.50
2022-09-10T21:31:32.127Z,79.66
2022-09-10T21:34:03.126Z,79.87
2022-09-10T21:36:31.834Z,79.89
2022-09-10T21:39:00.991Z,80.12
2022-09-10T21:41:33.534Z,80.18
2022-09-10T21:44:03.056Z,80.24
2022-09-10T21:46:30.717Z,80.43
2022-09-10T21:48:57.404Z,80.60
2022-09-10T21:51:24.496Z,80.83
2022-09-10T21:53:56.300Z,80.86
2022-09-10T21:56:24.846Z,81.09
2022-09-10T21:58:51.501Z,81.06
2022-09-10T22:01:21.025Z,81.15
2022-09-10T22:03:48.683Z,81.30
2022-09-10T22:06:23.147Z,81.45
2022-09-10T22:08:52.368Z,81.54
2022-09-10T22:11:24.267Z,81.68
2022-09-10T22:13:53.138Z,81.34
2022-09-10T22:16:21.112Z,81.36
2022-09-10T22:18:48.567Z,81.31
2022-09-10T22:21:16.593Z,81.59
2022-09-10T22:23:44.456Z,81.59
2022-09-10T22:26:17.385Z,81.73
2022-09-10T22:28:44.655Z,81.70
2022-09-10T22:31:13.048Z,81.87
2022-09-10T22:33:41.619Z,81.87
2022-09-10T22:36:18.814Z,82.19
2022-09-10T22:38:56.307Z,82.14
2022-09-10T22:41:23.213Z,82.34
2022-09-10T22:43:50.398Z,82.34
2022-09-10T22:46:19.091Z,82.84
2022-09-10T22:48:46.648Z,82.94
2022-09-10T22:51:18.795Z,83.00
2022-09-10T22:53:46.652Z,83.00
2022-09-10T22:56:14.675Z,83.09
2022-09-10T22:58:41.410Z,83.23
2022-09-10T23:01:10.334Z,83.52
2022-09-10T23:03:38.636Z,83.38
2022-09-10T23:06:06.629Z,83.57
2022-09-10T23:08:35.097Z,83.43
2022-09-10T23:11:31.959Z,83.54
2022-09-10T23:14:04.612Z,83.62
2022-09-10T23:16:34.462Z,83.77
2022-09-10T23:19:04.088Z,83.85
2022-09-10T23:21:32.600Z,83.73
2022-09-10T23:24:05.249Z,83.95
2022-09-10T23:26:31.911Z,83.89
2022-09-10T23:29:00.420Z,84.01
2022-09-10T23:31:29.471Z,84.31
2022-09-10T23:34:01.956Z,84.32
2022-09-10T23:36:34.168Z,84.42
2022-09-10T23:39:03.248Z,84.36
2022-09-10T23:41:32.798Z,84.45
2022-09-10T23:43:59.449Z,84.74
2022-09-10T23:46:26.582Z,84.67
2022-09-10T23:48:53.170Z,84.77
2022-09-10T23:51:21.100Z,84.86
2022-09-10T23:53:48.806Z,84.92
2022-09-10T23:56:18.465Z,85.02
2022-09-10T23:58:45.649Z,85.17
